sensor_id;sensor_type;location;lat;lon;timestamp;temperature;humidity
4103;DHT22;2065;49.790;9.620;2022-10-31T00:00:15;18.30;67.50
4103;DHT22;2065;49.790;9.620;2022-10-31T00:02:42;18.30;67.30
4103;DHT22;2065;49.790;9.620;2022-10-31T00:05:11;18.20;67.40
4103;DHT22;2065;49.790;9.620;2022-10-31T00:07:38;18.30;67.20
4103;DHT22;2065;49.790;9.620;2022-10-31T00:10:06;18.30;67.20
4103;DHT22;2065;49.790;9.620;2022-10-31T00:12:33;18.30;67.20
4103;DHT22;2065;49.790;9.620;2022-10-31T00:15:00;18.20;66.80
4103;DHT22;2065;49.790;9.620;2022-10-31T00:17:27;18.00;67.60
4103;DHT22;2065;49.790;9.620;2022-10-31T00:19:54;18.00;67.60
4103;DHT22;2065;49.790;9.620;2022-10-31T00:22:24;18.10;67.60
4103;DHT22;2065;49.790;9.620;2022-10-31T00:24:51;18.10;67.60
4103;DHT22;2065;49.790;9.620;2022-10-31T00:27:18;18.10;67.50
4103;DHT22;2065;49.790;9.620;2022-10-31T00:29:45;18.20;67.20
4103;DHT22;2065;49.790;9.620;2022-10-31T00:32:12;18.00;67.50
4103;DHT22;2065;49.790;9.620;2022-10-31T00:34:39;17.80;67.70
4103;DHT22;2065;49.790;9.620;2022-10-31T00:37:06;17.60;68.30
4103;DHT22;2065;49.790;9.620;2022-10-31T00:39:36;17.70;68.30
4103;DHT22;2065;49.790;9.620;2022-10-31T00:42:03;17.70;68.50
4103;DHT22;2065;49.790;9.620;2022-10-31T00:44:30;17.60;68.60
4103;DHT22;2065;49.790;9.620;2022-10-31T00:46:57;17.60;68.90
4103;DHT22;2065;49.790;9.620;2022-10-31T00:49:24;17.50;69.00
4103;DHT22;2065;49.790;9.620;2022-10-31T00:51:51;17.50;68.70
4103;DHT22;2065;49.790;9.620;2022-10-31T00:54:19;17.50;68.70
4103;DHT22;2065;49.790;9.620;2022-10-31T00:56:47;17.50;68.80
4103;DHT22;2065;49.790;9.620;2022-10-31T00:59:14;17.70;68.50
4103;DHT22;2065;49.790;9.620;2022-10-31T01:01:41;17.80;67.60
4103;DHT22;2065;49.790;9.620;2022-10-31T01:04:08;17.80;66.80
4103;DHT22;2065;49.790;9.620;2022-10-31T01:06:35;17.80;66.80
4103;DHT22;2065;49.790;9.620;2022-10-31T01:09:02;17.80;66.40
4103;DHT22;2065;49.790;9.620;2022-10-31T01:11:29;17.70;66.50
4103;DHT22;2065;49.790;9.620;2022-10-31T01:13:58;17.70;66.20
4103;DHT22;2065;49.790;9.620;2022-10-31T01:16:26;17.40;66.40
4103;DHT22;2065;49.790;9.620;2022-10-31T01:18:56;17.20;67.40
4103;DHT22;2065;49.790;9.620;2022-10-31T01:21:28;17.10;67.60
4103;DHT22;2065;49.790;9.620;2022-10-31T01:23:58;17.10;67.60
4103;DHT22;2065;49.790;9.620;2022-10-31T01:26:27;17.20;67.50
4103;DHT22;2065;49.790;9.620;2022-10-31T01:28:56;17.30;67.00
4103;DHT22;2065;49.790;9.620;2022-10-31T01:31:28;17.40;66.80
4103;DHT22;2065;49.790;9.620;2022-10-31T01:33:55;17.40;66.70
4103;DHT22;2065;49.790;9.620;2022-10-31T01:36:26;17.40;66.40
4103;DHT22;2065;49.790;9.620;2022-10-31T01:38:55;17.40;66.50
4103;DHT22;2065;49.790;9.620;2022-10-31T01:41:26;17.10;66.90
4103;DHT22;2065;49.790;9.620;2022-10-31T01:43:55;17.00;67.30
4103;DHT22;2065;49.790;9.620;2022-10-31T01:46:27;17.00;67.50
4103;DHT22;2065;49.790;9.620;2022-10-31T01:48:57;17.00;67.30
4103;DHT22;2065;49.790;9.620;2022-10-31T01:51:28;16.80;67.40
4103;DHT22;2065;49.790;9.620;2022-10-31T01:54:01;16.90;67.40
4103;DHT22;2065;49.790;9.620;2022-10-31T01:56:28;16.90;66.70
4103;DHT22;2065;49.790;9.620;2022-10-31T01:58:56;16.90;67.30
4103;DHT22;2065;49.790;9.620;2022-10-31T02:01:27;17.00;66.10
4103;DHT22;2065;49.790;9.620;2022-10-31T02:03:55;16.90;66.60
4103;DHT22;2065;49.790;9.620;2022-10-31T02:06:30;16.80;66.60
4103;DHT22;2065;49.790;9.620;2022-10-31T02:09:00;16.90;66.60
4103;DHT22;2065;49.790;9.620;2022-10-31T02:11:29;17.00;66.50
4103;DHT22;2065;49.790;9.620;2022-10-31T02:13:58;17.00;66.50
4103;DHT22;2065;49.790;9.620;2022-10-31T02:16:27;17.00;66.00
4103;DHT22;2065;49.790;9.620;2022-10-31T02:18:55;16.90;66.40
4103;DHT22;2065;49.790;9.620;2022-10-31T02:21:30;17.00;66.20
4103;DHT22;2065;49.790;9.620;2022-10-31T02:24:15;17.10;65.70
4103;DHT22;2065;49.790;9.620;2022-10-31T02:26:59;17.10;65.20
4103;DHT22;2065;49.790;9.620;2022-10-31T02:29:59;16.90;65.70
4103;DHT22;2065;49.790;9.620;2022-10-31T02:35:28;17.00;65.60
4103;DHT22;2065;49.790;9.620;2022-10-31T02:38:05;17.00;65.10
4103;DHT22;2065;49.790;9.620;2022-10-31T02:40:39;17.00;65.40
4103;DHT22;2065;49.790;9.620;2022-10-31T02:43:29;16.80;65.70
4103;DHT22;2065;49.790;9.620;2022-10-31T02:46:02;16.60;66.40
4103;DHT22;2065;49.790;9.620;2022-10-31T02:48:38;16.70;66.50
4103;DHT22;2065;49.790;9.620;2022-10-31T02:51:07;16.40;66.20
4103;DHT22;2065;49.790;9.620;2022-10-31T02:53:36;16.10;67.30
4103;DHT22;2065;49.790;9.620;2022-10-31T02:56:11;16.10;67.70
4103;DHT22;2065;49.790;9.620;2022-10-31T02:58:41;16.10;67.20
4103;DHT22;2065;49.790;9.620;2022-10-31T03:01:44;15.90;67.70
4103;DHT22;2065;49.790;9.620;2022-10-31T03:07:29;16.30;67.10
4103;DHT22;2065;49.790;9.620;2022-10-31T03:10:03;16.50;66.80
4103;DHT22;2065;49.790;9.620;2022-10-31T03:12:38;16.60;66.60
4103;DHT22;2065;49.790;9.620;2022-10-31T03:15:14;16.60;66.40
4103;DHT22;2065;49.790;9.620;2022-10-31T03:17:51;16.50;66.40
4103;DHT22;2065;49.790;9.620;2022-10-31T03:20:22;16.10;66.20
4103;DHT22;2065;49.790;9.620;2022-10-31T03:22:52;16.00;66.70
4103;DHT22;2065;49.790;9.620;2022-10-31T03:25:22;15.90;66.80
4103;DHT22;2065;49.790;9.620;2022-10-31T03:27:51;15.90;67.10
4103;DHT22;2065;49.790;9.620;2022-10-31T03:30:19;16.00;66.90
4103;DHT22;2065;49.790;9.620;2022-10-31T03:32:56;16.10;66.80
4103;DHT22;2065;49.790;9.620;2022-10-31T03:35:26;16.00;66.70
4103;DHT22;2065;49.790;9.620;2022-10-31T03:37:57;15.90;66.40
4103;DHT22;2065;49.790;9.620;2022-10-31T03:40:27;15.80;67.20
4103;DHT22;2065;49.790;9.620;2022-10-31T03:42:58;15.70;66.80
4103;DHT22;2065;49.790;9.620;2022-10-31T03:45:29;15.70;67.00
4103;DHT22;2065;49.790;9.620;2022-10-31T03:47:57;15.70;66.90
4103;DHT22;2065;49.790;9.620;2022-10-31T03:50:28;15.90;66.80
4103;DHT22;2065;49.790;9.620;2022-10-31T03:53:06;16.00;66.40
4103;DHT22;2065;49.790;9.620;2022-10-31T03:55:40;16.00;66.30
4103;DHT22;2065;49.790;9.620;2022-10-31T03:58:11;16.00;65.90
4103;DHT22;2065;49.790;9.620;2022-10-31T04:00:41;15.70;66.40
4103;DHT22;2065;49.790;9.620;2022-10-31T04:03:14;15.70;66.90
4103;DHT22;2065;49.790;9.620;2022-10-31T04:05:46;15.60;67.70
4103;DHT22;2065;49.790;9.620;2022-10-31T04:08:18;15.60;67.30
4103;DHT22;2065;49.790;9.620;2022-10-31T04:10:48;15.60;67.00
4103;DHT22;2065;49.790;9.620;2022-10-31T04:13:20;15.70;66.30
4103;DHT22;2065;49.790;9.620;2022-10-31T04:15:57;15.70;66.50
4103;DHT22;2065;49.790;9.620;2022-10-31T04:18:25;15.90;66.20
4103;DHT22;2065;49.790;9.620;2022-10-31T04:21:00;16.10;66.00
4103;DHT22;2065;49.790;9.620;2022-10-31T04:23:29;16.20;65.00
4103;DHT22;2065;49.790;9.620;2022-10-31T04:25:57;16.00;65.00
4103;DHT22;2065;49.790;9.620;2022-10-31T04:28:24;15.60;65.70
4103;DHT22;2065;49.790;9.620;2022-10-31T04:30:51;15.50;66.20
4103;DHT22;2065;49.790;9.620;2022-10-31T04:33:19;15.60;66.20
4103;DHT22;2065;49.790;9.620;2022-10-31T04:35:46;15.60;66.00
4103;DHT22;2065;49.790;9.620;2022-10-31T04:38:13;15.70;65.80
4103;DHT22;2065;49.790;9.620;2022-10-31T04:40:44;15.50;66.00
4103;DHT22;2065;49.790;9.620;2022-10-31T04:43:44;15.50;66.30
4103;DHT22;2065;49.790;9.620;2022-10-31T04:46:12;15.60;65.70
4103;DHT22;2065;49.790;9.620;2022-10-31T04:48:39;15.60;66.00
4103;DHT22;2065;49.790;9.620;2022-10-31T04:51:07;15.50;66.00
4103;DHT22;2065;49.790;9.620;2022-10-31T04:53:34;15.50;65.70
4103;DHT22;2065;49.790;9.620;2022-10-31T04:56:40;15.30;66.30
4103;DHT22;2065;49.790;9.620;2022-10-31T04:59:16;15.60;65.70
4103;DHT22;2065;49.790;9.620;2022-10-31T05:01:48;15.70;65.30
4103;DHT22;2065;49.790;9.620;2022-10-31T05:04:20;15.70;65.50
4103;DHT22;2065;49.790;9.620;2022-10-31T05:06:47;15.60;64.50
4103;DHT22;2065;49.790;9.620;2022-10-31T05:09:14;15.30;65.40
4103;DHT22;2065;49.790;9.620;2022-10-31T05:11:43;15.10;66.10
4103;DHT22;2065;49.790;9.620;2022-10-31T05:14:25;15.20;66.40
4103;DHT22;2065;49.790;9.620;2022-10-31T05:17:15;15.40;65.80
4103;DHT22;2065;49.790;9.620;2022-10-31T05:20:22;15.40;65.20
4103;DHT22;2065;49.790;9.620;2022-10-31T05:23:16;15.50;65.30
4103;DHT22;2065;49.790;9.620;2022-10-31T05:25:43;15.40;66.00
4103;DHT22;2065;49.790;9.620;2022-10-31T05:28:12;15.40;65.30
4103;DHT22;2065;49.790;9.620;2022-10-31T05:30:39;15.40;65.50
4103;DHT22;2065;49.790;9.620;2022-10-31T05:33:11;15.40;65.40
4103;DHT22;2065;49.790;9.620;2022-10-31T05:36:04;15.20;65.60
4103;DHT22;2065;49.790;9.620;2022-10-31T05:38:34;15.30;65.70
4103;DHT22;2065;49.790;9.620;2022-10-31T05:41:10;15.10;65.70
4103;DHT22;2065;49.790;9.620;2022-10-31T05:43:41;15.00;65.90
4103;DHT22;2065;49.790;9.620;2022-10-31T05:46:09;15.20;66.30
4103;DHT22;2065;49.790;9.620;2022-10-31T05:49:14;15.30;65.80
4103;DHT22;2065;49.790;9.620;2022-10-31T05:52:12;15.10;65.20
4103;DHT22;2065;49.790;9.620;2022-10-31T05:54:47;15.30;65.50
4103;DHT22;2065;49.790;9.620;2022-10-31T05:57:14;15.40;64.80
4103;DHT22;2065;49.790;9.620;2022-10-31T05:59:43;15.30;64.60
4103;DHT22;2065;49.790;9.620;2022-10-31T06:02:10;15.20;64.70
4103;DHT22;2065;49.790;9.620;2022-10-31T06:04:55;15.10;65.50
4103;DHT22;2065;49.790;9.620;2022-10-31T06:07:22;14.80;66.50
4103;DHT22;2065;49.790;9.620;2022-10-31T06:09:49;14.80;66.10
4103;DHT22;2065;49.790;9.620;2022-10-31T06:12:19;14.60;66.40
4103;DHT22;2065;49.790;9.620;2022-10-31T06:15:08;14.70;66.50
4103;DHT22;2065;49.790;9.620;2022-10-31T06:17:35;14.90;66.00
4103;DHT22;2065;49.790;9.620;2022-10-31T06:20:29;15.10;65.40
4103;DHT22;2065;49.790;9.620;2022-10-31T06:23:01;15.00;65.30
4103;DHT22;2065;49.790;9.620;2022-10-31T06:25:28;14.90;65.10
4103;DHT22;2065;49.790;9.620;2022-10-31T06:27:55;14.70;65.80
4103;DHT22;2065;49.790;9.620;2022-10-31T06:30:29;14.70;66.20
4103;DHT22;2065;49.790;9.620;2022-10-31T06:33:02;14.70;65.90
4103;DHT22;2065;49.790;9.620;2022-10-31T06:35:29;14.90;65.40
4103;DHT22;2065;49.790;9.620;2022-10-31T06:37:56;14.60;65.60
4103;DHT22;2065;49.790;9.620;2022-10-31T06:40:37;14.80;66.10
4103;DHT22;2065;49.790;9.620;2022-10-31T06:43:16;14.70;65.70
4103;DHT22;2065;49.790;9.620;2022-10-31T06:45:45;14.80;65.30
4103;DHT22;2065;49.790;9.620;2022-10-31T06:48:35;14.80;64.20
4103;DHT22;2065;49.790;9.620;2022-10-31T06:51:17;14.90;64.90
4103;DHT22;2065;49.790;9.620;2022-10-31T06:53:45;15.00;63.70
4103;DHT22;2065;49.790;9.620;2022-10-31T06:56:14;14.90;62.80
4103;DHT22;2065;49.790;9.620;2022-10-31T06:58:47;14.60;62.50
4103;DHT22;2065;49.790;9.620;2022-10-31T07:01:17;14.70;64.00
4103;DHT22;2065;49.790;9.620;2022-10-31T07:03:44;14.60;63.10
4103;DHT22;2065;49.790;9.620;2022-10-31T07:06:11;14.70;63.70
4103;DHT22;2065;49.790;9.620;2022-10-31T07:08:38;14.80;63.00
4103;DHT22;2065;49.790;9.620;2022-10-31T07:11:06;14.70;63.00
4103;DHT22;2065;49.790;9.620;2022-10-31T07:13:34;14.70;63.60
4103;DHT22;2065;49.790;9.620;2022-10-31T07:16:05;14.90;63.80
4103;DHT22;2065;49.790;9.620;2022-10-31T07:18:36;14.90;63.80
4103;DHT22;2065;49.790;9.620;2022-10-31T07:21:03;14.90;63.60
4103;DHT22;2065;49.790;9.620;2022-10-31T07:23:31;14.80;63.80
4103;DHT22;2065;49.790;9.620;2022-10-31T07:26:37;15.00;63.80
4103;DHT22;2065;49.790;9.620;2022-10-31T07:29:04;14.80;63.80
4103;DHT22;2065;49.790;9.620;2022-10-31T07:31:31;14.50;64.50
4103;DHT22;2065;49.790;9.620;2022-10-31T07:34:05;14.60;64.70
4103;DHT22;2065;49.790;9.620;2022-10-31T07:36:35;14.70;64.80
4103;DHT22;2065;49.790;9.620;2022-10-31T07:39:03;14.70;65.10
4103;DHT22;2065;49.790;9.620;2022-10-31T07:41:33;14.80;64.60
4103;DHT22;2065;49.790;9.620;2022-10-31T07:44:00;14.80;64.90
4103;DHT22;2065;49.790;9.620;2022-10-31T07:47:05;15.10;64.50
4103;DHT22;2065;49.790;9.620;2022-10-31T07:50:11;15.20;64.20
4103;DHT22;2065;49.790;9.620;2022-10-31T07:53:01;15.00;64.40
4103;DHT22;2065;49.790;9.620;2022-10-31T07:55:44;15.10;64.70
4103;DHT22;2065;49.790;9.620;2022-10-31T07:58:15;15.20;64.10
4103;DHT22;2065;49.790;9.620;2022-10-31T08:00:44;15.20;63.80
4103;DHT22;2065;49.790;9.620;2022-10-31T08:03:16;15.20;63.60
4103;DHT22;2065;49.790;9.620;2022-10-31T08:06:03;15.10;64.50
4103;DHT22;2065;49.790;9.620;2022-10-31T08:08:53;14.80;65.80
4103;DHT22;2065;49.790;9.620;2022-10-31T08:11:20;14.70;66.30
4103;DHT22;2065;49.790;9.620;2022-10-31T08:13:47;14.90;66.10
4103;DHT22;2065;49.790;9.620;2022-10-31T08:16:14;15.00;65.20
4103;DHT22;2065;49.790;9.620;2022-10-31T08:18:52;14.90;65.70
4103;DHT22;2065;49.790;9.620;2022-10-31T08:21:23;14.90;65.60
4103;DHT22;2065;49.790;9.620;2022-10-31T08:23:50;14.90;66.30
4103;DHT22;2065;49.790;9.620;2022-10-31T08:26:19;15.00;65.90
4103;DHT22;2065;49.790;9.620;2022-10-31T08:28:48;14.90;65.90
4103;DHT22;2065;49.790;9.620;2022-10-31T08:31:16;14.80;65.50
4103;DHT22;2065;49.790;9.620;2022-10-31T08:34:03;14.60;66.40
4103;DHT22;2065;49.790;9.620;2022-10-31T08:36:51;14.80;66.80
4103;DHT22;2065;49.790;9.620;2022-10-31T08:39:27;14.90;66.40
4103;DHT22;2065;49.790;9.620;2022-10-31T08:41:54;15.00;66.40
4103;DHT22;2065;49.790;9.620;2022-10-31T08:44:22;15.20;66.40
4103;DHT22;2065;49.790;9.620;2022-10-31T08:46:49;15.40;66.00
4103;DHT22;2065;49.790;9.620;2022-10-31T08:49:16;15.40;65.20
4103;DHT22;2065;49.790;9.620;2022-10-31T08:51:43;15.50;65.60
4103;DHT22;2065;49.790;9.620;2022-10-31T08:54:11;15.30;66.00
4103;DHT22;2065;49.790;9.620;2022-10-31T08:56:54;15.20;66.30
4103;DHT22;2065;49.790;9.620;2022-10-31T08:59:39;15.20;67.20
4103;DHT22;2065;49.790;9.620;2022-10-31T09:02:35;15.20;66.80
4103;DHT22;2065;49.790;9.620;2022-10-31T09:05:04;15.50;66.40
4103;DHT22;2065;49.790;9.620;2022-10-31T09:07:33;15.30;66.50
4103;DHT22;2065;49.790;9.620;2022-10-31T09:10:01;15.40;66.70
4103;DHT22;2065;49.790;9.620;2022-10-31T09:12:31;15.50;67.20
4103;DHT22;2065;49.790;9.620;2022-10-31T09:15:08;15.50;66.80
4103;DHT22;2065;49.790;9.620;2022-10-31T09:17:46;15.70;66.20
4103;DHT22;2065;49.790;9.620;2022-10-31T09:20:37;15.70;66.30
4103;DHT22;2065;49.790;9.620;2022-10-31T09:23:07;15.80;66.10
4103;DHT22;2065;49.790;9.620;2022-10-31T09:25:38;16.00;65.80
4103;DHT22;2065;49.790;9.620;2022-10-31T09:28:24;15.90;65.60
4103;DHT22;2065;49.790;9.620;2022-10-31T09:30:53;15.90;65.60
4103;DHT22;2065;49.790;9.620;2022-10-31T09:33:41;15.90;66.00
4103;DHT22;2065;49.790;9.620;2022-10-31T09:36:28;16.00;66.00
4103;DHT22;2065;49.790;9.620;2022-10-31T09:38:55;15.60;66.20
4103;DHT22;2065;49.790;9.620;2022-10-31T09:41:28;15.30;67.20
4103;DHT22;2065;49.790;9.620;2022-10-31T09:44:01;15.30;68.30
4103;DHT22;2065;49.790;9.620;2022-10-31T09:46:37;15.50;67.90
4103;DHT22;2065;49.790;9.620;2022-10-31T09:49:24;15.40;67.50
4103;DHT22;2065;49.790;9.620;2022-10-31T09:52:00;15.40;67.90
4103;DHT22;2065;49.790;9.620;2022-10-31T09:54:35;15.70;67.80
4103;DHT22;2065;49.790;9.620;2022-10-31T09:57:12;15.80;67.30
4103;DHT22;2065;49.790;9.620;2022-10-31T09:59:41;16.10;67.10
4103;DHT22;2065;49.790;9.620;2022-10-31T10:02:15;16.10;66.20
4103;DHT22;2065;49.790;9.620;2022-10-31T10:04:48;16.00;66.50
4103;DHT22;2065;49.790;9.620;2022-10-31T10:07:25;16.00;66.80
4103;DHT22;2065;49.790;9.620;2022-10-31T10:10:16;16.00;67.10
4103;DHT22;2065;49.790;9.620;2022-10-31T10:13:22;15.90;66.80
4103;DHT22;2065;49.790;9.620;2022-10-31T10:16:06;16.10;66.90
4103;DHT22;2065;49.790;9.620;2022-10-31T10:18:42;16.10;66.80
4103;DHT22;2065;49.790;9.620;2022-10-31T10:21:19;16.10;67.20
4103;DHT22;2065;49.790;9.620;2022-10-31T10:23:58;16.10;67.20
4103;DHT22;2065;49.790;9.620;2022-10-31T10:26:33;16.00;67.10
4103;DHT22;2065;49.790;9.620;2022-10-31T10:29:11;16.00;67.60
4103;DHT22;2065;49.790;9.620;2022-10-31T10:31:42;16.10;67.20
4103;DHT22;2065;49.790;9.620;2022-10-31T10:34:16;16.10;67.30
4103;DHT22;2065;49.790;9.620;2022-10-31T10:36:48;16.20;67.30
4103;DHT22;2065;49.790;9.620;2022-10-31T10:39:19;16.30;67.30
4103;DHT22;2065;49.790;9.620;2022-10-31T10:41:49;16.30;67.40
4103;DHT22;2065;49.790;9.620;2022-10-31T10:44:31;16.40;67.00
4103;DHT22;2065;49.790;9.620;2022-10-31T10:47:15;16.40;66.90
4103;DHT22;2065;49.790;9.620;2022-10-31T10:50:01;16.70;66.80
4103;DHT22;2065;49.790;9.620;2022-10-31T10:52:36;16.60;66.70
4103;DHT22;2065;49.790;9.620;2022-10-31T10:55:11;16.50;67.30
4103;DHT22;2065;49.790;9.620;2022-10-31T10:57:51;16.50;67.30
4103;DHT22;2065;49.790;9.620;2022-10-31T11:00:23;16.30;68.20
4103;DHT22;2065;49.790;9.620;2022-10-31T11:02:51;16.20;68.40
4103;DHT22;2065;49.790;9.620;2022-10-31T11:05:23;16.20;69.20
4103;DHT22;2065;49.790;9.620;2022-10-31T11:07:51;16.40;69.00
4103;DHT22;2065;49.790;9.620;2022-10-31T11:10:18;16.60;68.30
4103;DHT22;2065;49.790;9.620;2022-10-31T11:12:58;16.70;67.90
4103;DHT22;2065;49.790;9.620;2022-10-31T11:15:28;16.80;67.80
4103;DHT22;2065;49.790;9.620;2022-10-31T11:17:57;16.90;67.90
4103;DHT22;2065;49.790;9.620;2022-10-31T11:20:28;17.00;67.50
4103;DHT22;2065;49.790;9.620;2022-10-31T11:23:03;16.80;68.10
4103;DHT22;2065;49.790;9.620;2022-10-31T11:25:30;16.80;68.60
4103;DHT22;2065;49.790;9.620;2022-10-31T11:28:01;17.00;68.10
4103;DHT22;2065;49.790;9.620;2022-10-31T11:30:35;17.20;67.90
4103;DHT22;2065;49.790;9.620;2022-10-31T11:33:17;17.30;67.50
4103;DHT22;2065;49.790;9.620;2022-10-31T11:35:47;17.30;67.50
4103;DHT22;2065;49.790;9.620;2022-10-31T11:38:18;17.30;67.30
4103;DHT22;2065;49.790;9.620;2022-10-31T11:40:57;17.50;67.10
4103;DHT22;2065;49.790;9.620;2022-10-31T11:43:25;17.60;66.70
4103;DHT22;2065;49.790;9.620;2022-10-31T11:45:54;17.70;66.50
4103;DHT22;2065;49.790;9.620;2022-10-31T11:48:23;17.50;67.10
4103;DHT22;2065;49.790;9.620;2022-10-31T11:50:52;17.40;67.60
4103;DHT22;2065;49.790;9.620;2022-10-31T11:53:26;17.30;67.70
4103;DHT22;2065;49.790;9.620;2022-10-31T11:56:05;17.40;68.00
4103;DHT22;2065;49.790;9.620;2022-10-31T11:58:33;17.50;67.90
4103;DHT22;2065;49.790;9.620;2022-10-31T12:01:01;17.60;66.90
4103;DHT22;2065;49.790;9.620;2022-10-31T12:03:42;17.70;67.00
4103;DHT22;2065;49.790;9.620;2022-10-31T12:06:13;17.50;67.20
4103;DHT22;2065;49.790;9.620;2022-10-31T12:08:41;17.30;68.40
4103;DHT22;2065;49.790;9.620;2022-10-31T12:11:18;17.20;68.80
4103;DHT22;2065;49.790;9.620;2022-10-31T12:13:59;17.30;68.70
4103;DHT22;2065;49.790;9.620;2022-10-31T12:16:36;17.60;68.30
4103;DHT22;2065;49.790;9.620;2022-10-31T12:19:14;17.80;67.70
4103;DHT22;2065;49.790;9.620;2022-10-31T12:21:56;17.90;67.10
4103;DHT22;2065;49.790;9.620;2022-10-31T12:24:38;18.00;66.60
4103;DHT22;2065;49.790;9.620;2022-10-31T12:27:17;17.90;66.90
4103;DHT22;2065;49.790;9.620;2022-10-31T12:29:57;17.80;67.60
4103;DHT22;2065;49.790;9.620;2022-10-31T12:32:38;17.90;67.50
4103;DHT22;2065;49.790;9.620;2022-10-31T12:35:40;18.00;67.40
4103;DHT22;2065;49.790;9.620;2022-10-31T12:38:23;17.80;67.40
4103;DHT22;2065;49.790;9.620;2022-10-31T12:41:11;17.70;68.40
4103;DHT22;2065;49.790;9.620;2022-10-31T12:43:45;17.60;68.30
4103;DHT22;2065;49.790;9.620;2022-10-31T12:46:22;17.80;68.40
4103;DHT22;2065;49.790;9.620;2022-10-31T12:49:04;18.00;67.70
4103;DHT22;2065;49.790;9.620;2022-10-31T12:51:41;18.00;67.90
4103;DHT22;2065;49.790;9.620;2022-10-31T12:54:29;18.00;67.90
4103;DHT22;2065;49.790;9.620;2022-10-31T12:57:03;18.20;67.90
4103;DHT22;2065;49.790;9.620;2022-10-31T12:59:38;18.40;67.50
4103;DHT22;2065;49.790;9.620;2022-10-31T13:02:13;18.40;67.10
4103;DHT22;2065;49.790;9.620;2022-10-31T13:04:48;18.40;67.20
4103;DHT22;2065;49.790;9.620;2022-10-31T13:07:20;18.50;67.20
4103;DHT22;2065;49.790;9.620;2022-10-31T13:09:56;18.50;67.00
4103;DHT22;2065;49.790;9.620;2022-10-31T13:12:27;18.60;66.90
4103;DHT22;2065;49.790;9.620;2022-10-31T13:14:57;18.60;66.60
4103;DHT22;2065;49.790;9.620;2022-10-31T13:17:30;18.60;67.00
4103;DHT22;2065;49.790;9.620;2022-10-31T13:20:15;18.60;66.90
4103;DHT22;2065;49.790;9.620;2022-10-31T13:22:46;18.50;67.20
4103;DHT22;2065;49.790;9.620;2022-10-31T13:25:16;18.40;67.60
4103;DHT22;2065;49.790;9.620;2022-10-31T13:27:48;18.50;67.50
4103;DHT22;2065;49.790;9.620;2022-10-31T13:30:19;18.50;67.50
4103;DHT22;2065;49.790;9.620;2022-10-31T13:32:50;18.50;67.90
4103;DHT22;2065;49.790;9.620;2022-10-31T13:35:25;18.50;67.90
4103;DHT22;2065;49.790;9.620;2022-10-31T13:38:16;18.40;67.60
4103;DHT22;2065;49.790;9.620;2022-10-31T13:40:51;18.50;67.70
4103;DHT22;2065;49.790;9.620;2022-10-31T13:43:26;18.60;67.80
4103;DHT22;2065;49.790;9.620;2022-10-31T13:45:56;18.60;67.60
4103;DHT22;2065;49.790;9.620;2022-10-31T13:48:38;18.40;68.00
4103;DHT22;2065;49.790;9.620;2022-10-31T13:51:09;18.40;68.20
4103;DHT22;2065;49.790;9.620;2022-10-31T13:53:44;18.50;68.20
4103;DHT22;2065;49.790;9.620;2022-10-31T13:56:15;18.70;68.00
4103;DHT22;2065;49.790;9.620;2022-10-31T13:58:59;18.80;67.40
4103;DHT22;2065;49.790;9.620;2022-10-31T14:01:27;18.70;67.70
4103;DHT22;2065;49.790;9.620;2022-10-31T14:04:00;18.60;68.00
4103;DHT22;2065;49.790;9.620;2022-10-31T14:07:05;18.50;68.30
4103;DHT22;2065;49.790;9.620;2022-10-31T14:09:34;18.60;68.10
4103;DHT22;2065;49.790;9.620;2022-10-31T14:12:06;18.60;68.00
4103;DHT22;2065;49.790;9.620;2022-10-31T14:14:42;18.70;67.90
4103;DHT22;2065;49.790;9.620;2022-10-31T14:17:18;18.90;67.80
4103;DHT22;2065;49.790;9.620;2022-10-31T14:22:46;18.70;67.80
4103;DHT22;2065;49.790;9.620;2022-10-31T14:25:30;18.70;68.40
4103;DHT22;2065;49.790;9.620;2022-10-31T14:27:58;18.80;68.10
4103;DHT22;2065;49.790;9.620;2022-10-31T14:30:27;18.90;67.90
4103;DHT22;2065;49.790;9.620;2022-10-31T14:32:57;18.90;67.80
4103;DHT22;2065;49.790;9.620;2022-10-31T14:35:27;18.90;67.80
4103;DHT22;2065;49.790;9.620;2022-10-31T14:38:26;18.70;68.50
4103;DHT22;2065;49.790;9.620;2022-10-31T14:41:14;18.60;68.90
4103;DHT22;2065;49.790;9.620;2022-10-31T14:44:08;18.70;68.80
4103;DHT22;2065;49.790;9.620;2022-10-31T14:46:44;18.70;68.50
4103;DHT22;2065;49.790;9.620;2022-10-31T14:49:32;18.60;69.10
4103;DHT22;2065;49.790;9.620;2022-10-31T14:52:06;18.60;69.30
4103;DHT22;2065;49.790;9.620;2022-10-31T14:54:39;18.70;69.20
4103;DHT22;2065;49.790;9.620;2022-10-31T14:57:14;18.80;69.00
4103;DHT22;2065;49.790;9.620;2022-10-31T14:59:46;18.90;68.70
4103;DHT22;2065;49.790;9.620;2022-10-31T15:02:19;18.90;68.50
4103;DHT22;2065;49.790;9.620;2022-10-31T15:04:48;18.90;68.50
4103;DHT22;2065;49.790;9.620;2022-10-31T15:07:19;18.90;68.80
4103;DHT22;2065;49.790;9.620;2022-10-31T15:09:57;18.80;68.90
4103;DHT22;2065;49.790;9.620;2022-10-31T15:12:25;18.90;68.90
4103;DHT22;2065;49.790;9.620;2022-10-31T15:14:53;19.00;68.80
4103;DHT22;2065;49.790;9.620;2022-10-31T15:17:21;19.00;68.50
4103;DHT22;2065;49.790;9.620;2022-10-31T15:19:49;19.00;68.50
4103;DHT22;2065;49.790;9.620;2022-10-31T15:22:19;19.10;68.50
4103;DHT22;2065;49.790;9.620;2022-10-31T15:24:48;19.20;68.20
4103;DHT22;2065;49.790;9.620;2022-10-31T15:27:23;19.20;67.90
4103;DHT22;2065;49.790;9.620;2022-10-31T15:29:52;19.30;67.80
4103;DHT22;2065;49.790;9.620;2022-10-31T15:32:21;19.30;67.80
4103;DHT22;2065;49.790;9.620;2022-10-31T15:34:49;19.30;67.90
4103;DHT22;2065;49.790;9.620;2022-10-31T15:37:18;19.30;67.80
4103;DHT22;2065;49.790;9.620;2022-10-31T15:39:47;19.30;67.50
4103;DHT22;2065;49.790;9.620;2022-10-31T15:42:20;19.30;67.60
4103;DHT22;2065;49.790;9.620;2022-10-31T15:44:52;19.30;67.50
4103;DHT22;2065;49.790;9.620;2022-10-31T15:47:22;19.30;67.70
4103;DHT22;2065;49.790;9.620;2022-10-31T15:49:52;19.30;67.90
4103;DHT22;2065;49.790;9.620;2022-10-31T15:52:27;19.30;67.90
4103;DHT22;2065;49.790;9.620;2022-10-31T15:54:58;19.30;67.90
4103;DHT22;2065;49.790;9.620;2022-10-31T15:57:27;19.30;67.80
4103;DHT22;2065;49.790;9.620;2022-10-31T15:59:55;19.30;67.80
4103;DHT22;2065;49.790;9.620;2022-10-31T16:02:24;19.30;68.00
4103;DHT22;2065;49.790;9.620;2022-10-31T16:04:54;19.30;67.90
4103;DHT22;2065;49.790;9.620;2022-10-31T16:07:22;19.30;67.70
4103;DHT22;2065;49.790;9.620;2022-10-31T16:09:54;19.30;67.80
4103;DHT22;2065;49.790;9.620;2022-10-31T16:12:23;19.30;67.70
4103;DHT22;2065;49.790;9.620;2022-10-31T16:14:53;19.30;67.60
4103;DHT22;2065;49.790;9.620;2022-10-31T16:17:24;19.30;67.80
4103;DHT22;2065;49.790;9.620;2022-10-31T16:19:55;19.20;67.90
4103;DHT22;2065;49.790;9.620;2022-10-31T16:22:25;19.10;68.00
4103;DHT22;2065;49.790;9.620;2022-10-31T16:24:57;18.80;69.30
4103;DHT22;2065;49.790;9.620;2022-10-31T16:27:28;18.60;70.10
4103;DHT22;2065;49.790;9.620;2022-10-31T16:29:56;18.80;69.70
4103;DHT22;2065;49.790;9.620;2022-10-31T16:32:34;18.80;69.30
4103;DHT22;2065;49.790;9.620;2022-10-31T16:35:21;18.90;70.00
4103;DHT22;2065;49.790;9.620;2022-10-31T16:37:50;18.90;69.00
4103;DHT22;2065;49.790;9.620;2022-10-31T16:40:17;19.00;68.60
4103;DHT22;2065;49.790;9.620;2022-10-31T16:42:45;19.10;68.60
4103;DHT22;2065;49.790;9.620;2022-10-31T16:45:16;19.10;68.40
4103;DHT22;2065;49.790;9.620;2022-10-31T16:47:45;19.10;68.30
4103;DHT22;2065;49.790;9.620;2022-10-31T16:50:14;19.10;68.20
4103;DHT22;2065;49.790;9.620;2022-10-31T16:52:41;19.00;68.40